Time;durP1;ratioP1;P1;durP2;ratioP2;P2;SDS_P1;SDS_P2;PMS_P1;PMS_P2;Temp;Humidity;BMP_temperature;BMP_pressure;BME280_temperature;BME280_humidity;BME280_pressure;Samples;Min_cycle;Max_cycle;Signal;HPM_P1;HPM_P2
2021/01/24 00:00:12;;;;;;;;;;;-0.10;99.90;;;;;;5128431;27;20335;-70
2021/01/24 00:02:38;;;;;;;;;;;-0.10;99.90;;;;;;5135219;27;19923;-70
2021/01/24 00:05:04;;;;;;;;;;;-0.10;99.90;;;;;;5134537;27;19923;-70
2021/01/24 00:07:30;;;;;;;;;;;-0.10;99.90;;;;;;5132838;27;19966;-70
2021/01/24 00:09:56;;;;;;;;;;;-0.10;99.90;;;;;;5134718;27;19986;-70
2021/01/24 00:12:23;;;;;;;;;;;0.00;99.90;;;;;;5134896;27;20345;-70
2021/01/24 00:14:48;;;;;;;;;;;0.00;99.90;;;;;;5117109;27;19923;-70
2021/01/24 00:17:14;;;;;;;;;;;0.10;99.90;;;;;;5113931;28;19969;-70
2021/01/24 00:19:40;;;;;;;;;;;0.00;99.90;;;;;;5122367;27;19924;-70
2021/01/24 00:22:06;;;;;;;;;;;0.00;99.90;;;;;;5134451;27;19923;-70
2021/01/24 00:24:32;;;;;;;;;;;0.00;99.90;;;;;;5134435;27;20211;-70
2021/01/24 00:26:58;;;;;;;;;;;0.00;99.90;;;;;;5133489;27;19923;-71
2021/01/24 00:29:25;;;;;;;;;;;-0.10;99.90;;;;;;5134319;27;19927;-71
2021/01/24 00:31:51;;;;;;;;;;;-0.10;99.90;;;;;;5134637;27;19923;-71
2021/01/24 00:34:17;;;;;;;;;;;0.00;99.90;;;;;;5134491;27;20312;-70
2021/01/24 00:36:43;;;;;;;;;;;0.00;99.90;;;;;;5133987;27;20288;-71
2021/01/24 00:39:09;;;;;;;;;;;0.00;99.90;;;;;;5127918;27;20332;-71
2021/01/24 00:41:35;;;;;;;;;;;0.00;99.90;;;;;;5113763;28;20236;-71
2021/01/24 00:44:01;;;;;;;;;;;0.00;99.90;;;;;;5113528;28;19963;-71
2021/01/24 00:46:28;;;;;;;;;;;0.00;99.90;;;;;;5113340;28;19931;-71
2021/01/24 00:48:54;;;;;;;;;;;0.00;99.90;;;;;;5113658;28;19924;-71
2021/01/24 00:51:20;;;;;;;;;;;0.10;99.90;;;;;;5113504;28;19946;-71
2021/01/24 00:53:45;;;;;;;;;;;0.10;99.90;;;;;;5113121;27;19924;-71
2021/01/24 00:56:11;;;;;;;;;;;0.10;99.90;;;;;;5112669;28;19935;-70
2021/01/24 00:58:37;;;;;;;;;;;0.10;99.90;;;;;;5113195;28;19930;-70
2021/01/24 01:01:03;;;;;;;;;;;0.10;99.90;;;;;;5113509;28;19930;-70
2021/01/24 01:03:30;;;;;;;;;;;0.10;99.90;;;;;;5113226;28;19924;-71
2021/01/24 01:05:56;;;;;;;;;;;0.10;99.90;;;;;;5112773;28;19931;-70
2021/01/24 01:08:22;;;;;;;;;;;0.10;99.90;;;;;;5131296;27;20354;-71
2021/01/24 01:10:48;;;;;;;;;;;0.10;99.90;;;;;;5133725;27;19924;-70
2021/01/24 01:13:14;;;;;;;;;;;0.10;99.90;;;;;;5133283;27;19928;-70
2021/01/24 01:15:40;;;;;;;;;;;0.10;99.90;;;;;;5133324;27;20452;-70
2021/01/24 01:18:06;;;;;;;;;;;0.10;99.90;;;;;;5133803;27;19923;-70
2021/01/24 01:20:33;;;;;;;;;;;0.20;99.90;;;;;;5133700;27;19923;-70
2021/01/24 01:22:59;;;;;;;;;;;0.10;99.90;;;;;;5133629;27;19924;-70
2021/01/24 01:25:25;;;;;;;;;;;0.20;99.90;;;;;;5133095;27;19973;-70
2021/01/24 01:27:51;;;;;;;;;;;0.20;99.90;;;;;;5132780;27;19931;-70
2021/01/24 01:30:17;;;;;;;;;;;0.20;99.90;;;;;;5133612;27;20337;-71
2021/01/24 01:32:43;;;;;;;;;;;0.30;99.90;;;;;;5133579;27;19959;-70
2021/01/24 01:35:10;;;;;;;;;;;0.20;99.90;;;;;;5123018;27;19923;-70
2021/01/24 01:37:37;;;;;;;;;;;0.20;99.90;;;;;;5112600;28;20384;-70
2021/01/24 01:40:03;;;;;;;;;;;0.30;99.90;;;;;;5112669;28;20413;-70
2021/01/24 01:42:29;;;;;;;;;;;0.20;99.90;;;;;;5113010;28;20016;-70
2021/01/24 01:44:55;;;;;;;;;;;0.30;99.90;;;;;;5128888;28;19924;-70
2021/01/24 01:47:23;;;;;;;;;;;0.30;99.90;;;;;;5133063;28;19923;-70
2021/01/24 01:49:49;;;;;;;;;;;0.30;99.90;;;;;;5133321;27;20388;-70
2021/01/24 01:52:15;;;;;;;;;;;0.40;99.90;;;;;;5133279;28;19927;-70
2021/01/24 01:54:43;;;;;;;;;;;0.40;99.90;;;;;;5133026;27;19930;-71
2021/01/24 01:57:09;;;;;;;;;;;0.30;99.90;;;;;;5132695;28;19959;-70
2021/01/24 01:59:35;;;;;;;;;;;0.30;99.90;;;;;;5133306;27;19924;-70
2021/01/24 02:02:04;;;;;;;;;;;0.30;99.90;;;;;;5125503;28;19930;-71
2021/01/24 02:04:34;;;;;;;;;;;0.30;99.90;;;;;;5112568;28;20034;-70
2021/01/24 02:07:02;;;;;;;;;;;0.40;99.90;;;;;;5113896;28;19959;-70
2021/01/24 02:09:32;;;;;;;;;;;0.40;99.90;;;;;;5117835;27;19954;-70
2021/01/24 02:12:05;;;;;;;;;;;0.40;99.90;;;;;;5116822;28;19931;-70
2021/01/24 02:14:32;;;;;;;;;;;0.40;99.90;;;;;;5116646;28;20389;-70
2021/01/24 02:17:00;;;;;;;;;;;0.40;99.90;;;;;;5132164;27;19965;-70
2021/01/24 02:19:35;;;;;;;;;;;0.40;99.90;;;;;;5136916;27;20288;-70
2021/01/24 02:22:01;;;;;;;;;;;0.40;99.90;;;;;;5137156;27;19966;-70
2021/01/24 02:24:28;;;;;;;;;;;0.40;99.90;;;;;;5121761;27;19946;-70
2021/01/24 02:26:59;;;;;;;;;;;0.50;99.90;;;;;;5129859;27;19959;-70
2021/01/24 02:29:30;;;;;;;;;;;0.40;99.90;;;;;;5120506;27;20017;-70
2021/01/24 02:31:59;;;;;;;;;;;0.50;99.90;;;;;;5136848;27;19923;-70
2021/01/24 02:34:28;;;;;;;;;;;0.50;99.90;;;;;;5136864;27;19963;-71
2021/01/24 02:36:55;;;;;;;;;;;0.50;99.90;;;;;;5136417;27;20010;-70
2021/01/24 02:39:21;;;;;;;;;;;0.50;99.90;;;;;;5136784;27;20127;-71
2021/01/24 02:41:47;;;;;;;;;;;0.50;99.90;;;;;;5136625;27;19923;-70
2021/01/24 02:44:14;;;;;;;;;;;0.50;99.90;;;;;;5136212;27;19930;-71
2021/01/24 02:46:40;;;;;;;;;;;0.50;99.90;;;;;;5136057;27;19923;-70
2021/01/24 02:49:07;;;;;;;;;;;0.40;99.90;;;;;;5136520;27;20089;-70
2021/01/24 02:51:34;;;;;;;;;;;0.40;99.90;;;;;;5132289;27;19967;-71
2021/01/24 02:54:00;;;;;;;;;;;0.40;99.90;;;;;;5115848;28;20381;-70
2021/01/24 02:56:26;;;;;;;;;;;0.40;99.90;;;;;;5115308;28;19975;-70
2021/01/24 02:58:52;;;;;;;;;;;0.50;99.90;;;;;;5134249;27;20006;-71
2021/01/24 03:01:18;;;;;;;;;;;0.50;99.90;;;;;;5136445;27;19927;-71
2021/01/24 03:03:44;;;;;;;;;;;0.50;99.90;;;;;;5136336;27;19949;-70
2021/01/24 03:06:11;;;;;;;;;;;0.50;99.90;;;;;;5135845;27;19923;-70
2021/01/24 03:08:38;;;;;;;;;;;0.50;99.90;;;;;;5136249;27;19976;-71
2021/01/24 03:11:04;;;;;;;;;;;0.50;99.90;;;;;;5135816;27;19962;-70
2021/01/24 03:13:37;;;;;;;;;;;0.50;99.90;;;;;;5135986;27;20333;-70
2021/01/24 03:16:03;;;;;;;;;;;0.50;99.90;;;;;;5135763;27;19930;-70
2021/01/24 03:18:31;;;;;;;;;;;0.50;99.90;;;;;;5135519;27;19963;-70
2021/01/24 03:20:57;;;;;;;;;;;0.50;99.90;;;;;;5135957;27;19923;-70
2021/01/24 03:23:24;;;;;;;;;;;0.50;99.90;;;;;;5136126;27;20334;-71
2021/01/24 03:25:50;;;;;;;;;;;0.50;99.90;;;;;;5120871;27;19975;-70
2021/01/24 03:28:17;;;;;;;;;;;0.60;99.90;;;;;;5115118;28;20354;-70
2021/01/24 03:30:43;;;;;;;;;;;0.60;99.90;;;;;;5115113;28;20400;-70
2021/01/24 03:33:09;;;;;;;;;;;0.60;99.90;;;;;;5114995;28;19930;-70
2021/01/24 03:35:35;;;;;;;;;;;0.60;99.90;;;;;;5114816;28;19953;-70
2021/01/24 03:38:01;;;;;;;;;;;0.70;99.90;;;;;;5114881;27;20404;-70
2021/01/24 03:40:28;;;;;;;;;;;0.70;99.90;;;;;;5114910;28;19928;-70
2021/01/24 03:42:54;;;;;;;;;;;0.70;99.90;;;;;;5115155;27;20458;-70
2021/01/24 03:45:20;;;;;;;;;;;0.70;99.90;;;;;;5114551;28;19949;-70
2021/01/24 03:47:46;;;;;;;;;;;0.70;99.90;;;;;;5114522;28;19927;-70
2021/01/24 03:50:12;;;;;;;;;;;0.50;99.90;;;;;;5114737;28;19924;-70
2021/01/24 03:52:38;;;;;;;;;;;0.80;99.90;;;;;;5120282;27;19973;-70
2021/01/24 03:55:04;;;;;;;;;;;0.80;99.90;;;;;;5135104;27;19946;-70
2021/01/24 03:57:32;;;;;;;;;;;0.80;99.90;;;;;;5134980;27;19923;-70
2021/01/24 03:59:58;;;;;;;;;;;0.90;99.90;;;;;;5135265;27;19971;-70
2021/01/24 04:02:24;;;;;;;;;;;0.80;99.90;;;;;;5135144;27;19923;-70
2021/01/24 04:04:50;;;;;;;;;;;0.90;99.90;;;;;;5135128;27;20270;-70
2021/01/24 04:07:16;;;;;;;;;;;0.90;99.90;;;;;;5134110;27;19923;-70
2021/01/24 04:09:42;;;;;;;;;;;0.90;99.90;;;;;;5134869;27;20415;-70
2021/01/24 04:12:08;;;;;;;;;;;0.90;99.90;;;;;;5134832;27;20388;-70
2021/01/24 04:14:36;;;;;;;;;;;0.90;99.90;;;;;;5135028;27;20345;-70
2021/01/24 04:17:02;;;;;;;;;;;0.90;99.90;;;;;;5134468;27;20389;-70
2021/01/24 04:19:28;;;;;;;;;;;0.90;99.90;;;;;;5134804;27;19978;-70
2021/01/24 04:21:54;;;;;;;;;;;0.90;99.90;;;;;;5134447;27;19966;-70
2021/01/24 04:24:20;;;;;;;;;;;0.90;99.90;;;;;;5134571;27;19929;-70
2021/01/24 04:26:46;;;;;;;;;;;0.90;99.90;;;;;;5132704;27;19993;-71
2021/01/24 04:29:12;;;;;;;;;;;1.00;99.90;;;;;;5133580;27;20392;-71
2021/01/24 04:31:39;;;;;;;;;;;1.00;99.90;;;;;;5134141;27;19930;-70
2021/01/24 04:34:04;;;;;;;;;;;1.00;99.90;;;;;;5134529;27;20308;-71
2021/01/24 04:36:30;;;;;;;;;;;1.00;99.90;;;;;;5134035;27;19924;-71
2021/01/24 04:38:56;;;;;;;;;;;1.00;99.90;;;;;;5134321;27;20377;-71
2021/01/24 04:41:22;;;;;;;;;;;1.00;99.90;;;;;;5134522;27;20346;-71
2021/01/24 04:43:49;;;;;;;;;;;1.10;99.90;;;;;;5134373;27;19970;-71
2021/01/24 04:46:15;;;;;;;;;;;1.10;99.90;;;;;;5133447;27;20369;-71
2021/01/24 04:48:42;;;;;;;;;;;1.00;99.90;;;;;;5134246;27;19923;-71
2021/01/24 04:51:08;;;;;;;;;;;1.10;99.90;;;;;;5134104;27;19923;-71
2021/01/24 04:53:35;;;;;;;;;;;1.00;99.90;;;;;;5118234;27;20535;-71
2021/01/24 04:56:01;;;;;;;;;;;1.00;99.90;;;;;;5113073;28;19928;-71
2021/01/24 04:58:28;;;;;;;;;;;1.00;99.90;;;;;;5113554;28;19962;-70
2021/01/24 05:00:54;;;;;;;;;;;1.00;99.90;;;;;;5113507;28;19924;-71
2021/01/24 05:03:20;;;;;;;;;;;1.00;99.90;;;;;;5113383;28;20023;-71
2021/01/24 05:05:47;;;;;;;;;;;1.10;99.90;;;;;;5112803;28;19924;-71
2021/01/24 05:08:15;;;;;;;;;;;1.00;99.90;;;;;;5113333;28;19984;-70
2021/01/24 05:10:44;;;;;;;;;;;1.00;99.90;;;;;;5113509;28;19959;-71
2021/01/24 05:13:10;;;;;;;;;;;1.00;99.90;;;;;;5113189;28;19966;-71
2021/01/24 05:15:36;;;;;;;;;;;1.10;99.90;;;;;;5117137;27;19924;-71
2021/01/24 05:18:02;;;;;;;;;;;1.10;99.90;;;;;;5133643;27;19923;-72
2021/01/24 05:20:29;;;;;;;;;;;1.10;99.90;;;;;;5125183;27;20270;-71
2021/01/24 05:22:56;;;;;;;;;;;1.10;99.90;;;;;;5113369;28;19924;-71
2021/01/24 05:25:23;;;;;;;;;;;1.10;99.90;;;;;;5112819;28;19931;-70
2021/01/24 05:27:49;;;;;;;;;;;1.00;99.90;;;;;;5113097;28;20454;-70
2021/01/24 05:30:20;;;;;;;;;;;1.10;99.90;;;;;;5112986;28;19982;-71
2021/01/24 05:32:46;;;;;;;;;;;1.00;99.90;;;;;;5112977;28;19931;-70
2021/01/24 05:35:13;;;;;;;;;;;1.00;99.90;;;;;;5121009;27;19970;-71
2021/01/24 05:37:40;;;;;;;;;;;1.10;99.90;;;;;;5133185;27;20381;-71
2021/01/24 05:40:08;;;;;;;;;;;1.10;99.90;;;;;;5133339;27;20006;-70
2021/01/24 05:42:35;;;;;;;;;;;1.00;99.90;;;;;;5133474;27;19930;-70
2021/01/24 05:45:01;;;;;;;;;;;1.10;99.90;;;;;;5133307;27;19966;-71
2021/01/24 05:47:32;;;;;;;;;;;0.90;99.90;;;;;;5131014;28;19924;-71
2021/01/24 05:49:58;;;;;;;;;;;0.90;99.90;;;;;;5113009;28;19931;-71
2021/01/24 05:52:26;;;;;;;;;;;0.90;99.90;;;;;;5112794;28;19990;-71
2021/01/24 05:54:52;;;;;;;;;;;0.90;99.90;;;;;;5112691;28;19974;-71
2021/01/24 05:57:22;;;;;;;;;;;0.90;99.90;;;;;;5112244;28;19927;-72
2021/01/24 05:59:50;;;;;;;;;;;0.90;99.90;;;;;;5112664;28;20368;-71
2021/01/24 06:02:16;;;;;;;;;;;0.90;99.90;;;;;;5114368;28;20301;-70
2021/01/24 06:04:42;;;;;;;;;;;1.00;99.90;;;;;;5133352;28;19924;-71
2021/01/24 06:07:08;;;;;;;;;;;1.00;99.90;;;;;;5115049;28;19923;-71
2021/01/24 06:09:34;;;;;;;;;;;1.00;99.90;;;;;;5112628;28;20297;-70
2021/01/24 06:12:01;;;;;;;;;;;1.00;99.90;;;;;;5112557;28;19924;-70
2021/01/24 06:14:28;;;;;;;;;;;1.10;99.90;;;;;;5112433;28;19969;-70
2021/01/24 06:16:57;;;;;;;;;;;1.10;99.90;;;;;;5127706;28;19970;-70
2021/01/24 06:19:25;;;;;;;;;;;1.10;99.90;;;;;;5133182;28;19962;-70
2021/01/24 06:21:53;;;;;;;;;;;1.10;99.90;;;;;;5133145;28;19962;-70
2021/01/24 06:24:22;;;;;;;;;;;1.10;99.90;;;;;;5132860;28;20389;-71
2021/01/24 06:26:51;;;;;;;;;;;1.10;99.90;;;;;;5132279;27;19923;-71
2021/01/24 06:29:19;;;;;;;;;;;1.10;99.90;;;;;;5132729;28;20371;-70
2021/01/24 06:31:46;;;;;;;;;;;1.10;99.90;;;;;;5115845;28;20490;-70
2021/01/24 06:34:12;;;;;;;;;;;1.10;99.90;;;;;;5112388;28;19924;-70
2021/01/24 06:36:38;;;;;;;;;;;1.10;99.90;;;;;;5112164;28;19977;-70
2021/01/24 06:39:05;;;;;;;;;;;1.10;99.90;;;;;;5112448;28;20367;-71
2021/01/24 06:41:44;;;;;;;;;;;1.10;99.90;;;;;;5112304;28;19959;-71
2021/01/24 06:44:28;;;;;;;;;;;1.10;99.90;;;;;;5112524;28;19923;-71
2021/01/24 06:46:55;;;;;;;;;;;1.10;99.90;;;;;;5111814;28;20042;-70
2021/01/24 06:49:36;;;;;;;;;;;1.10;99.90;;;;;;5112245;28;19973;-71
2021/01/24 06:52:13;;;;;;;;;;;1.10;99.90;;;;;;5112326;28;19972;-71
2021/01/24 06:54:39;;;;;;;;;;;1.10;99.90;;;;;;5115973;28;19924;-71
2021/01/24 06:57:07;;;;;;;;;;;1.10;99.90;;;;;;5132036;27;19928;-71
2021/01/24 06:59:33;;;;;;;;;;;1.20;99.90;;;;;;5136394;27;19924;-71
2021/01/24 07:02:14;;;;;;;;;;;1.20;99.90;;;;;;5136294;27;20045;-71
2021/01/24 07:04:41;;;;;;;;;;;1.20;99.90;;;;;;5135445;27;20401;-71
2021/01/24 07:07:26;;;;;;;;;;;1.20;99.90;;;;;;5135968;27;19930;-71
2021/01/24 07:09:52;;;;;;;;;;;1.20;99.90;;;;;;5136221;27;20027;-71
2021/01/24 07:12:32;;;;;;;;;;;1.30;99.90;;;;;;5136083;27;19981;-71
2021/01/24 07:14:58;;;;;;;;;;;1.30;99.90;;;;;;5135709;27;20468;-71
2021/01/24 07:17:24;;;;;;;;;;;1.30;99.90;;;;;;5135458;27;19924;-71
2021/01/24 07:19:52;;;;;;;;;;;1.30;99.90;;;;;;5136050;27;19967;-71
2021/01/24 07:22:19;;;;;;;;;;;1.40;99.90;;;;;;5136019;27;20023;-71
2021/01/24 07:24:46;;;;;;;;;;;1.40;99.90;;;;;;5120923;27;19927;-71
2021/01/24 07:27:15;;;;;;;;;;;1.40;99.90;;;;;;5114689;28;19971;-71
2021/01/24 07:29:41;;;;;;;;;;;2.20;99.90;;;;;;5115115;28;19982;-72
2021/01/24 07:32:08;;;;;;;;;;;1.50;99.90;;;;;;5115276;28;19966;-71
2021/01/24 07:34:35;;;;;;;;;;;1.50;99.90;;;;;;5115196;28;20301;-71
2021/01/24 07:37:03;;;;;;;;;;;1.50;99.90;;;;;;5114681;28;19924;-71
2021/01/24 07:39:29;;;;;;;;;;;1.50;99.90;;;;;;5114947;28;19939;-71
2021/01/24 07:41:55;;;;;;;;;;;1.60;99.90;;;;;;5114821;28;19934;-71
2021/01/24 07:44:21;;;;;;;;;;;1.60;99.90;;;;;;5114793;28;19924;-71
2021/01/24 07:46:47;;;;;;;;;;;1.60;99.90;;;;;;5114440;28;20297;-71
2021/01/24 07:49:13;;;;;;;;;;;1.60;99.90;;;;;;5114945;28;19967;-71
2021/01/24 07:51:39;;;;;;;;;;;1.60;99.90;;;;;;5134037;27;19949;-71
2021/01/24 07:54:06;;;;;;;;;;;1.70;99.90;;;;;;5135278;27;19927;-71
2021/01/24 07:56:32;;;;;;;;;;;1.80;99.90;;;;;;5134643;27;20016;-71
2021/01/24 07:58:58;;;;;;;;;;;1.80;99.90;;;;;;5134993;27;19930;-70
2021/01/24 08:01:24;;;;;;;;;;;2.00;99.90;;;;;;5135253;27;19923;-71
2021/01/24 08:03:50;;;;;;;;;;;1.90;99.90;;;;;;5135098;27;19924;-71
2021/01/24 08:06:16;;;;;;;;;;;1.90;99.90;;;;;;5116019;27;19967;-71
2021/01/24 08:08:43;;;;;;;;;;;1.90;99.90;;;;;;5114417;28;19924;-70
2021/01/24 08:11:10;;;;;;;;;;;1.90;99.90;;;;;;5117440;27;19928;-70
2021/01/24 08:13:37;;;;;;;;;;;2.00;99.90;;;;;;5114191;28;19970;-71
2021/01/24 08:16:04;;;;;;;;;;;2.00;99.90;;;;;;5113992;28;19930;-70
2021/01/24 08:18:30;;;;;;;;;;;2.00;99.90;;;;;;5114299;28;20010;-70
2021/01/24 08:20:57;;;;;;;;;;;2.00;99.90;;;;;;5114531;28;19981;-71
2021/01/24 08:23:23;;;;;;;;;;;2.00;99.90;;;;;;5114098;28;19932;-71
2021/01/24 08:25:51;;;;;;;;;;;2.00;99.90;;;;;;5130330;27;19975;-71
2021/01/24 08:28:18;;;;;;;;;;;2.00;99.90;;;;;;5134590;27;19929;-71
2021/01/24 08:30:44;;;;;;;;;;;2.10;99.90;;;;;;5134705;27;20011;-71
2021/01/24 08:33:11;;;;;;;;;;;2.10;99.90;;;;;;5134543;27;19923;-71
2021/01/24 08:35:37;;;;;;;;;;;2.20;99.90;;;;;;5133916;27;19993;-71
2021/01/24 08:38:03;;;;;;;;;;;2.30;99.90;;;;;;5128101;27;20397;-71
2021/01/24 08:40:29;;;;;;;;;;;2.30;99.90;;;;;;5113567;27;20282;-71
2021/01/24 08:42:56;;;;;;;;;;;2.40;99.90;;;;;;5113929;28;20342;-72
2021/01/24 08:45:24;;;;;;;;;;;2.50;99.90;;;;;;5113657;28;19959;-72
2021/01/24 08:47:50;;;;;;;;;;;2.50;99.90;;;;;;5113283;28;20438;-71
2021/01/24 08:50:16;;;;;;;;;;;2.50;99.90;;;;;;5113573;28;19946;-72
2021/01/24 08:52:42;;;;;;;;;;;2.60;99.90;;;;;;5113422;28;20373;-73
2021/01/24 08:55:08;;;;;;;;;;;2.50;99.90;;;;;;5113382;28;19930;-72
2021/01/24 08:57:35;;;;;;;;;;;2.50;99.90;;;;;;5113039;28;20439;-73
2021/01/24 09:00:01;;;;;;;;;;;2.40;99.90;;;;;;5113469;28;19959;-73
2021/01/24 09:02:29;;;;;;;;;;;2.40;99.90;;;;;;5113407;28;19924;-72
2021/01/24 09:04:55;;;;;;;;;;;2.30;99.90;;;;;;5121837;27;19929;-72
2021/01/24 09:07:21;;;;;;;;;;;2.20;99.90;;;;;;5133366;27;19938;-74
2021/01/24 09:09:48;;;;;;;;;;;2.30;99.90;;;;;;5133647;27;19924;-74
2021/01/24 09:12:15;;;;;;;;;;;2.40;99.90;;;;;;5134041;27;19923;-74
2021/01/24 09:14:41;;;;;;;;;;;2.30;99.90;;;;;;5133641;27;19931;-74
2021/01/24 09:17:08;;;;;;;;;;;2.30;99.90;;;;;;5133192;27;19924;-74
2021/01/24 09:19:36;;;;;;;;;;;2.30;99.90;;;;;;5133425;27;19923;-74
2021/01/24 09:22:02;;;;;;;;;;;2.30;99.90;;;;;;5133521;27;19927;-74
2021/01/24 09:24:28;;;;;;;;;;;2.30;99.90;;;;;;5133090;27;19969;-73
2021/01/24 09:26:54;;;;;;;;;;;2.30;99.90;;;;;;5133315;27;19923;-74
2021/01/24 09:29:20;;;;;;;;;;;2.30;99.90;;;;;;5134301;27;19923;-74
2021/01/24 09:31:46;;;;;;;;;;;2.30;99.90;;;;;;5113004;28;19924;-73
2021/01/24 09:34:12;;;;;;;;;;;2.30;99.90;;;;;;5112942;28;19958;-73
2021/01/24 09:36:39;;;;;;;;;;;2.30;99.90;;;;;;5112416;28;19981;-73
2021/01/24 09:39:06;;;;;;;;;;;2.40;99.90;;;;;;5113024;28;19927;-74
2021/01/24 09:41:32;;;;;;;;;;;2.50;99.90;;;;;;5112709;28;19931;-73
2021/01/24 09:43:58;;;;;;;;;;;2.60;99.90;;;;;;5112791;28;19981;-73
2021/01/24 09:46:24;;;;;;;;;;;2.70;99.90;;;;;;5112302;28;19923;-73
2021/01/24 09:48:50;;;;;;;;;;;2.80;99.90;;;;;;5112673;28;19923;-73
2021/01/24 09:51:16;;;;;;;;;;;2.90;99.90;;;;;;5112577;28;19923;-73
2021/01/24 09:53:50;;;;;;;;;;;3.00;99.90;;;;;;5112493;28;19947;-74
2021/01/24 09:59:19;;;;;;;;;;;3.20;99.90;;;;;;5129823;27;19937;-73
2021/01/24 10:01:45;;;;;;;;;;;3.40;99.90;;;;;;5133013;27;19927;-73
2021/01/24 10:04:11;;;;;;;;;;;3.50;99.90;;;;;;5129173;28;19924;-73
2021/01/24 10:06:37;;;;;;;;;;;3.60;99.90;;;;;;5112906;28;19969;-73
2021/01/24 10:12:26;;;;;;;;;;;3.80;99.90;;;;;;5112843;28;20331;-74
2021/01/24 10:14:52;;;;;;;;;;;3.80;99.90;;;;;;5119805;28;19967;-71
2021/01/24 10:17:18;;;;;;;;;;;3.70;99.90;;;;;;5112075;28;19928;-73
2021/01/24 10:19:44;;;;;;;;;;;3.60;99.90;;;;;;5121319;28;19923;-72
2021/01/24 10:22:09;;;;;;;;;;;3.60;99.90;;;;;;5112542;28;19971;-73
2021/01/24 10:24:35;;;;;;;;;;;3.60;99.90;;;;;;5128793;27;19934;-74
2021/01/24 10:27:01;;;;;;;;;;;3.50;99.90;;;;;;5132284;27;19924;-77
2021/01/24 10:29:28;;;;;;;;;;;3.50;99.90;;;;;;5131072;27;19927;-77
2021/01/24 10:31:54;;;;;;;;;;;3.30;99.90;;;;;;5116160;28;20421;-77
2021/01/24 10:34:20;;;;;;;;;;;3.30;99.90;;;;;;5117398;27;19931;-75
2021/01/24 10:36:46;;;;;;;;;;;3.30;99.90;;;;;;5118836;27;19923;-76
2021/01/24 10:39:12;;;;;;;;;;;3.30;99.90;;;;;;5132658;27;19923;-76
2021/01/24 10:41:38;;;;;;;;;;;3.30;99.90;;;;;;5136546;27;20403;-75
2021/01/24 10:44:04;;;;;;;;;;;3.30;99.90;;;;;;5133141;27;20012;-75
2021/01/24 10:46:31;;;;;;;;;;;3.20;99.90;;;;;;5115614;28;19924;-73
2021/01/24 10:48:57;;;;;;;;;;;3.20;99.90;;;;;;5116039;28;19923;-72
2021/01/24 10:51:23;;;;;;;;;;;3.20;99.90;;;;;;5115800;28;20417;-74
2021/01/24 10:53:49;;;;;;;;;;;3.10;99.90;;;;;;5115742;28;19976;-74
2021/01/24 10:56:16;;;;;;;;;;;3.10;99.90;;;;;;5115403;28;19981;-73
2021/01/24 10:58:42;;;;;;;;;;;3.10;99.90;;;;;;5128601;27;19934;-73
2021/01/24 11:01:08;;;;;;;;;;;3.00;99.90;;;;;;5136350;27;20304;-73
2021/01/24 11:03:35;;;;;;;;;;;3.00;99.90;;;;;;5135451;27;20335;-73
2021/01/24 11:06:01;;;;;;;;;;;3.00;99.90;;;;;;5134990;27;19946;-73
2021/01/24 11:08:27;;;;;;;;;;;3.00;99.90;;;;;;5136505;27;19924;-73
2021/01/24 11:10:54;;;;;;;;;;;3.00;99.90;;;;;;5137967;27;19929;-73
2021/01/24 11:13:19;;;;;;;;;;;3.00;99.90;;;;;;5126163;27;19972;-73
2021/01/24 11:15:46;;;;;;;;;;;3.00;99.90;;;;;;5115218;28;19932;-73
2021/01/24 11:18:12;;;;;;;;;;;3.00;99.90;;;;;;5134871;27;19969;-73
2021/01/24 11:20:38;;;;;;;;;;;3.10;99.90;;;;;;5136151;27;19923;-73
2021/01/24 11:23:04;;;;;;;;;;;3.00;99.90;;;;;;5135663;27;20301;-73
2021/01/24 11:25:30;;;;;;;;;;;3.00;99.90;;;;;;5135501;27;19930;-73
2021/01/24 11:27:56;;;;;;;;;;;3.10;99.90;;;;;;5135731;27;19927;-73
2021/01/24 11:30:23;;;;;;;;;;;3.00;99.90;;;;;;5135890;27;19924;-73
2021/01/24 11:32:49;;;;;;;;;;;3.10;99.90;;;;;;5135766;27;19969;-73
2021/01/24 11:35:15;;;;;;;;;;;3.10;99.90;;;;;;5135425;27;19931;-73
2021/01/24 11:37:42;;;;;;;;;;;3.10;99.90;;;;;;5135124;27;20064;-73
2021/01/24 11:40:09;;;;;;;;;;;3.00;99.90;;;;;;5135101;27;19923;-73
2021/01/24 11:42:36;;;;;;;;;;;3.00;99.90;;;;;;5135650;27;19931;-74
2021/01/24 11:45:03;;;;;;;;;;;2.90;99.90;;;;;;5130560;27;19923;-73
2021/01/24 11:47:29;;;;;;;;;;;2.90;99.90;;;;;;5135057;27;19984;-72
2021/01/24 11:49:55;;;;;;;;;;;2.90;99.90;;;;;;5135176;27;19923;-71
2021/01/24 11:52:21;;;;;;;;;;;2.80;99.90;;;;;;5131447;27;20408;-72
2021/01/24 11:54:47;;;;;;;;;;;2.90;99.90;;;;;;5114271;27;19924;-71
2021/01/24 11:57:13;;;;;;;;;;;2.90;99.90;;;;;;5114124;28;19931;-71
2021/01/24 11:59:41;;;;;;;;;;;2.90;99.90;;;;;;5114671;28;19931;-71
2021/01/24 12:02:07;;;;;;;;;;;3.00;99.90;;;;;;5114524;28;19928;-71
2021/01/24 12:04:33;;;;;;;;;;;3.00;99.90;;;;;;5115535;27;20435;-71
2021/01/24 12:07:00;;;;;;;;;;;3.00;99.90;;;;;;5113702;27;19969;-70
2021/01/24 12:09:26;;;;;;;;;;;3.00;99.90;;;;;;5114126;28;19934;-71
2021/01/24 12:11:53;;;;;;;;;;;3.10;99.90;;;;;;5114504;28;19924;-72
2021/01/24 12:14:19;;;;;;;;;;;3.10;99.90;;;;;;5114521;28;19928;-72
2021/01/24 12:16:45;;;;;;;;;;;3.10;99.90;;;;;;5113651;28;19931;-72
2021/01/24 12:19:11;;;;;;;;;;;3.10;99.90;;;;;;5127037;27;19924;-72
2021/01/24 12:21:37;;;;;;;;;;;3.10;99.90;;;;;;5134469;27;20106;-71
2021/01/24 12:24:03;;;;;;;;;;;3.20;99.90;;;;;;5134164;27;20385;-71
2021/01/24 12:26:29;;;;;;;;;;;3.20;99.90;;;;;;5133681;27;20326;-71
2021/01/24 12:28:56;;;;;;;;;;;3.20;99.90;;;;;;5132756;27;19927;-70
2021/01/24 12:31:22;;;;;;;;;;;3.20;99.90;;;;;;5134123;27;19923;-71
2021/01/24 12:33:48;;;;;;;;;;;3.20;99.90;;;;;;5134459;27;19924;-70
2021/01/24 12:36:14;;;;;;;;;;;3.20;99.90;;;;;;5133773;27;20595;-71
2021/01/24 12:38:40;;;;;;;;;;;3.20;99.90;;;;;;5134217;27;19923;-71
2021/01/24 12:41:06;;;;;;;;;;;3.20;99.90;;;;;;5134484;27;19927;-71
2021/01/24 12:43:32;;;;;;;;;;;3.20;99.90;;;;;;5130158;27;19924;-71
2021/01/24 12:45:59;;;;;;;;;;;3.30;99.90;;;;;;5113058;28;19931;-71
2021/01/24 12:48:25;;;;;;;;;;;3.30;99.90;;;;;;5113478;28;19939;-71
2021/01/24 12:50:50;;;;;;;;;;;3.20;99.90;;;;;;5112682;28;19955;-70
2021/01/24 12:53:16;;;;;;;;;;;3.20;99.90;;;;;;5113550;28;19977;-71
2021/01/24 12:55:42;;;;;;;;;;;3.20;99.90;;;;;;5119307;27;19992;-71
2021/01/24 12:58:08;;;;;;;;;;;3.20;99.90;;;;;;5133799;27;20369;-71
2021/01/24 13:00:34;;;;;;;;;;;3.20;99.90;;;;;;5133746;27;19930;-71
2021/01/24 13:03:01;;;;;;;;;;;3.20;99.90;;;;;;5129135;27;19949;-70
2021/01/24 13:05:27;;;;;;;;;;;3.20;99.90;;;;;;5112946;28;19931;-70
2021/01/24 13:07:53;;;;;;;;;;;3.20;99.90;;;;;;5113017;28;19931;-71
2021/01/24 13:10:19;;;;;;;;;;;3.20;99.90;;;;;;5113155;28;19924;-71
2021/01/24 13:12:45;;;;;;;;;;;3.20;99.90;;;;;;5115143;27;19934;-70
2021/01/24 13:15:11;;;;;;;;;;;3.20;99.90;;;;;;5118632;27;19924;-71
2021/01/24 13:17:37;;;;;;;;;;;3.20;99.90;;;;;;5112624;28;19924;-71
2021/01/24 13:20:05;;;;;;;;;;;3.10;99.90;;;;;;5126668;27;19938;-71
2021/01/24 13:22:31;;;;;;;;;;;3.10;99.90;;;;;;5134111;27;19923;-71
2021/01/24 13:24:57;;;;;;;;;;;3.10;99.90;;;;;;5114172;27;19977;-71
2021/01/24 13:27:23;;;;;;;;;;;3.10;99.90;;;;;;5112712;28;20018;-71
2021/01/24 13:29:49;;;;;;;;;;;3.00;99.90;;;;;;5112899;28;20297;-71
2021/01/24 13:32:15;;;;;;;;;;;3.00;99.90;;;;;;5124091;27;19930;-71
2021/01/24 13:34:41;;;;;;;;;;;3.00;99.90;;;;;;5133019;27;19924;-71
2021/01/24 13:37:08;;;;;;;;;;;3.00;99.90;;;;;;5132848;27;19924;-71
2021/01/24 13:39:34;;;;;;;;;;;3.00;99.90;;;;;;5131705;27;19930;-71
2021/01/24 13:42:00;;;;;;;;;;;3.00;99.90;;;;;;5133054;27;19923;-71
2021/01/24 13:44:26;;;;;;;;;;;3.00;99.90;;;;;;5132580;27;19972;-71
2021/01/24 13:46:52;;;;;;;;;;;3.00;99.90;;;;;;5132212;27;19947;-71
2021/01/24 13:49:18;;;;;;;;;;;3.00;99.90;;;;;;5133018;27;19923;-71
2021/01/24 13:51:44;;;;;;;;;;;3.00;99.90;;;;;;5125767;28;19931;-71
2021/01/24 13:54:11;;;;;;;;;;;2.90;99.90;;;;;;5132842;27;19923;-71
2021/01/24 13:56:37;;;;;;;;;;;2.90;99.90;;;;;;5132601;28;19924;-71
2021/01/24 13:59:03;;;;;;;;;;;2.90;99.90;;;;;;5132278;27;19923;-71
2021/01/24 14:01:29;;;;;;;;;;;2.90;99.90;;;;;;5134065;27;19950;-72
2021/01/24 14:03:55;;;;;;;;;;;2.90;99.90;;;;;;5136929;27;19930;-71
2021/01/24 14:06:21;;;;;;;;;;;2.90;99.90;;;;;;5136636;27;20396;-71
2021/01/24 14:08:47;;;;;;;;;;;2.90;99.90;;;;;;5137063;27;19924;-71
2021/01/24 14:11:14;;;;;;;;;;;2.80;99.90;;;;;;5137002;27;19931;-71
2021/01/24 14:13:40;;;;;;;;;;;2.90;99.90;;;;;;5135310;27;19927;-71
2021/01/24 14:16:06;;;;;;;;;;;2.90;99.90;;;;;;5114117;28;19977;-72
2021/01/24 14:18:32;;;;;;;;;;;2.90;99.90;;;;;;5116357;28;19924;-70
2021/01/24 14:20:58;;;;;;;;;;;2.90;99.90;;;;;;5116359;28;19943;-73
2021/01/24 14:23:24;;;;;;;;;;;2.90;99.90;;;;;;5124371;27;19927;-72
2021/01/24 14:25:50;;;;;;;;;;;2.80;99.90;;;;;;5136606;27;19923;-71
2021/01/24 14:28:17;;;;;;;;;;;2.80;99.90;;;;;;5136186;27;19924;-70
2021/01/24 14:30:43;;;;;;;;;;;2.70;99.90;;;;;;5136533;27;19923;-71